sensor_id;sensor_type;location;lat;lon;timestamp;P1;durP1;ratioP1;P2;durP2;ratioP2
3217;SDS011;1621;49.702;8.618;2023-01-13T00:00:42;8.50;;;1.50;;
3217;SDS011;1621;49.702;8.618;2023-01-13T00:03:09;3.67;;;1.70;;
3217;SDS011;1621;49.702;8.618;2023-01-13T00:05:35;3.20;;;1.27;;
3217;SDS011;1621;49.702;8.618;2023-01-13T00:08:02;2.77;;;1.13;;
3217;SDS011;1621;49.702;8.618;2023-01-13T00:10:28;5.10;;;1.40;;
3217;SDS011;1621;49.702;8.618;2023-01-13T00:12:55;5.10;;;1.40;;
3217;SDS011;1621;49.702;8.618;2023-01-13T00:15:22;3.90;;;1.40;;
3217;SDS011;1621;49.702;8.618;2023-01-13T00:17:49;2.80;;;1.20;;
3217;SDS011;1621;49.702;8.618;2023-01-13T00:20:15;3.37;;;1.90;;
3217;SDS011;1621;49.702;8.618;2023-01-13T00:22:42;4.30;;;1.90;;
3217;SDS011;1621;49.702;8.618;2023-01-13T00:25:08;3.30;;;1.90;;
3217;SDS011;1621;49.702;8.618;2023-01-13T00:27:34;3.20;;;1.63;;
3217;SDS011;1621;49.702;8.618;2023-01-13T00:30:01;3.50;;;1.27;;
3217;SDS011;1621;49.702;8.618;2023-01-13T00:32:28;4.43;;;1.60;;
3217;SDS011;1621;49.702;8.618;2023-01-13T00:34:55;4.43;;;1.30;;
3217;SDS011;1621;49.702;8.618;2023-01-13T00:37:21;2.97;;;1.50;;
3217;SDS011;1621;49.702;8.618;2023-01-13T00:39:49;3.37;;;1.30;;
3217;SDS011;1621;49.702;8.618;2023-01-13T00:42:15;7.33;;;1.57;;
3217;SDS011;1621;49.702;8.618;2023-01-13T00:44:59;2.87;;;1.20;;
3217;SDS011;1621;49.702;8.618;2023-01-13T00:47:26;5.43;;;1.80;;
3217;SDS011;1621;49.702;8.618;2023-01-13T00:49:53;2.87;;;1.10;;
3217;SDS011;1621;49.702;8.618;2023-01-13T00:52:20;4.17;;;1.30;;
3217;SDS011;1621;49.702;8.618;2023-01-13T00:54:46;3.20;;;1.53;;
3217;SDS011;1621;49.702;8.618;2023-01-13T00:57:12;3.00;;;1.33;;
3217;SDS011;1621;49.702;8.618;2023-01-13T00:59:39;4.10;;;1.23;;
3217;SDS011;1621;49.702;8.618;2023-01-13T01:02:05;3.90;;;1.40;;
3217;SDS011;1621;49.702;8.618;2023-01-13T01:04:32;4.87;;;1.40;;
3217;SDS011;1621;49.702;8.618;2023-01-13T01:07:00;3.20;;;1.40;;
3217;SDS011;1621;49.702;8.618;2023-01-13T01:09:26;3.50;;;1.10;;
3217;SDS011;1621;49.702;8.618;2023-01-13T01:11:56;5.40;;;1.20;;
3217;SDS011;1621;49.702;8.618;2023-01-13T01:14:23;5.50;;;1.57;;
3217;SDS011;1621;49.702;8.618;2023-01-13T01:16:49;3.63;;;1.20;;
3217;SDS011;1621;49.702;8.618;2023-01-13T01:19:15;3.67;;;1.10;;
3217;SDS011;1621;49.702;8.618;2023-01-13T01:21:42;5.10;;;1.40;;
3217;SDS011;1621;49.702;8.618;2023-01-13T01:24:10;4.53;;;1.60;;
3217;SDS011;1621;49.702;8.618;2023-01-13T01:26:36;3.10;;;1.10;;
3217;SDS011;1621;49.702;8.618;2023-01-13T01:29:02;2.50;;;1.10;;
3217;SDS011;1621;49.702;8.618;2023-01-13T01:31:29;3.70;;;1.47;;
3217;SDS011;1621;49.702;8.618;2023-01-13T01:33:56;3.67;;;1.20;;
3217;SDS011;1621;49.702;8.618;2023-01-13T01:36:23;3.13;;;1.20;;
3217;SDS011;1621;49.702;8.618;2023-01-13T01:38:50;2.53;;;1.27;;
3217;SDS011;1621;49.702;8.618;2023-01-13T01:41:18;3.47;;;1.27;;
3217;SDS011;1621;49.702;8.618;2023-01-13T01:43:46;5.23;;;1.57;;
3217;SDS011;1621;49.702;8.618;2023-01-13T01:46:24;3.53;;;1.40;;
3217;SDS011;1621;49.702;8.618;2023-01-13T01:48:50;4.27;;;1.10;;
3217;SDS011;1621;49.702;8.618;2023-01-13T01:51:17;2.40;;;1.00;;
3217;SDS011;1621;49.702;8.618;2023-01-13T01:53:43;3.33;;;1.20;;
3217;SDS011;1621;49.702;8.618;2023-01-13T01:56:12;3.23;;;1.00;;
3217;SDS011;1621;49.702;8.618;2023-01-13T01:58:42;3.20;;;1.10;;
3217;SDS011;1621;49.702;8.618;2023-01-13T02:01:09;3.40;;;1.10;;
3217;SDS011;1621;49.702;8.618;2023-01-13T02:03:36;3.13;;;1.20;;
3217;SDS011;1621;49.702;8.618;2023-01-13T02:06:04;2.40;;;0.93;;
3217;SDS011;1621;49.702;8.618;2023-01-13T02:08:31;3.80;;;1.10;;
3217;SDS011;1621;49.702;8.618;2023-01-13T02:10:57;3.40;;;1.37;;
3217;SDS011;1621;49.702;8.618;2023-01-13T02:13:23;5.60;;;2.80;;
3217;SDS011;1621;49.702;8.618;2023-01-13T02:15:52;2.70;;;1.00;;
3217;SDS011;1621;49.702;8.618;2023-01-13T02:18:37;3.33;;;0.90;;
3217;SDS011;1621;49.702;8.618;2023-01-13T02:21:17;3.00;;;0.90;;
3217;SDS011;1621;49.702;8.618;2023-01-13T02:24:02;3.80;;;1.10;;
3217;SDS011;1621;49.702;8.618;2023-01-13T02:29:35;3.10;;;1.10;;
3217;SDS011;1621;49.702;8.618;2023-01-13T02:32:24;2.57;;;1.10;;
3217;SDS011;1621;49.702;8.618;2023-01-13T02:34:52;6.70;;;1.60;;
3217;SDS011;1621;49.702;8.618;2023-01-13T02:37:21;2.40;;;1.10;;
3217;SDS011;1621;49.702;8.618;2023-01-13T02:39:53;3.27;;;1.40;;
3217;SDS011;1621;49.702;8.618;2023-01-13T02:42:22;2.53;;;1.00;;
3217;SDS011;1621;49.702;8.618;2023-01-13T02:45:10;3.07;;;1.23;;
3217;SDS011;1621;49.702;8.618;2023-01-13T02:47:38;4.80;;;1.50;;
3217;SDS011;1621;49.702;8.618;2023-01-13T02:50:09;4.20;;;1.23;;
3217;SDS011;1621;49.702;8.618;2023-01-13T02:52:38;4.40;;;1.20;;
3217;SDS011;1621;49.702;8.618;2023-01-13T02:55:06;3.93;;;1.30;;
3217;SDS011;1621;49.702;8.618;2023-01-13T02:57:33;3.50;;;1.30;;
3217;SDS011;1621;49.702;8.618;2023-01-13T03:00:01;4.37;;;1.60;;
3217;SDS011;1621;49.702;8.618;2023-01-13T03:02:29;4.30;;;1.30;;
3217;SDS011;1621;49.702;8.618;2023-01-13T03:04:56;5.07;;;1.33;;
3217;SDS011;1621;49.702;8.618;2023-01-13T03:07:29;3.50;;;1.30;;
3217;SDS011;1621;49.702;8.618;2023-01-13T03:09:58;4.23;;;1.40;;
3217;SDS011;1621;49.702;8.618;2023-01-13T03:12:29;8.47;;;1.67;;
3217;SDS011;1621;49.702;8.618;2023-01-13T03:14:59;3.80;;;1.00;;
3217;SDS011;1621;49.702;8.618;2023-01-13T03:17:30;4.73;;;2.30;;
3217;SDS011;1621;49.702;8.618;2023-01-13T03:20:00;3.60;;;1.20;;
3217;SDS011;1621;49.702;8.618;2023-01-13T03:22:30;2.87;;;1.20;;
3217;SDS011;1621;49.702;8.618;2023-01-13T03:24:59;3.13;;;1.27;;
3217;SDS011;1621;49.702;8.618;2023-01-13T03:27:29;3.03;;;1.03;;
3217;SDS011;1621;49.702;8.618;2023-01-13T03:29:56;3.57;;;1.30;;
3217;SDS011;1621;49.702;8.618;2023-01-13T03:32:24;2.80;;;1.30;;
3217;SDS011;1621;49.702;8.618;2023-01-13T03:34:54;4.63;;;1.60;;
3217;SDS011;1621;49.702;8.618;2023-01-13T03:37:22;3.10;;;1.20;;
3217;SDS011;1621;49.702;8.618;2023-01-13T03:39:52;3.17;;;1.10;;
3217;SDS011;1621;49.702;8.618;2023-01-13T03:42:21;2.43;;;1.10;;
3217;SDS011;1621;49.702;8.618;2023-01-13T03:44:49;3.53;;;1.20;;
3217;SDS011;1621;49.702;8.618;2023-01-13T03:47:18;3.03;;;1.23;;
3217;SDS011;1621;49.702;8.618;2023-01-13T03:49:47;3.73;;;1.13;;
3217;SDS011;1621;49.702;8.618;2023-01-13T03:52:19;2.60;;;1.20;;
3217;SDS011;1621;49.702;8.618;2023-01-13T03:54:48;3.00;;;1.47;;
3217;SDS011;1621;49.702;8.618;2023-01-13T03:57:17;3.37;;;1.10;;
3217;SDS011;1621;49.702;8.618;2023-01-13T03:59:46;3.00;;;1.10;;
3217;SDS011;1621;49.702;8.618;2023-01-13T04:02:15;7.40;;;1.20;;
3217;SDS011;1621;49.702;8.618;2023-01-13T04:04:44;2.33;;;1.10;;
3217;SDS011;1621;49.702;8.618;2023-01-13T04:07:14;3.90;;;1.17;;
3217;SDS011;1621;49.702;8.618;2023-01-13T04:09:47;2.67;;;1.13;;
3217;SDS011;1621;49.702;8.618;2023-01-13T04:12:16;3.10;;;1.00;;
3217;SDS011;1621;49.702;8.618;2023-01-13T04:14:44;2.80;;;1.10;;
3217;SDS011;1621;49.702;8.618;2023-01-13T04:17:11;2.97;;;1.20;;
3217;SDS011;1621;49.702;8.618;2023-01-13T04:19:37;2.57;;;1.20;;
3217;SDS011;1621;49.702;8.618;2023-01-13T04:22:03;2.40;;;1.00;;
3217;SDS011;1621;49.702;8.618;2023-01-13T04:24:30;2.40;;;1.17;;
3217;SDS011;1621;49.702;8.618;2023-01-13T04:26:57;2.77;;;1.23;;
3217;SDS011;1621;49.702;8.618;2023-01-13T04:29:23;4.73;;;1.63;;
3217;SDS011;1621;49.702;8.618;2023-01-13T04:31:50;4.40;;;1.30;;
3217;SDS011;1621;49.702;8.618;2023-01-13T04:34:16;2.73;;;1.10;;
3217;SDS011;1621;49.702;8.618;2023-01-13T04:36:42;3.60;;;1.47;;
3217;SDS011;1621;49.702;8.618;2023-01-13T04:39:09;4.43;;;1.10;;
3217;SDS011;1621;49.702;8.618;2023-01-13T04:41:35;2.70;;;1.30;;
3217;SDS011;1621;49.702;8.618;2023-01-13T04:44:17;2.43;;;1.10;;
3217;SDS011;1621;49.702;8.618;2023-01-13T04:46:43;2.57;;;1.20;;
3217;SDS011;1621;49.702;8.618;2023-01-13T04:49:09;2.20;;;0.90;;
3217;SDS011;1621;49.702;8.618;2023-01-13T04:51:36;2.73;;;1.20;;
3217;SDS011;1621;49.702;8.618;2023-01-13T04:54:02;6.20;;;1.77;;
3217;SDS011;1621;49.702;8.618;2023-01-13T04:56:28;5.70;;;1.10;;
3217;SDS011;1621;49.702;8.618;2023-01-13T04:58:54;4.00;;;1.37;;
3217;SDS011;1621;49.702;8.618;2023-01-13T05:01:22;3.30;;;1.37;;
3217;SDS011;1621;49.702;8.618;2023-01-13T05:03:48;5.03;;;1.50;;
3217;SDS011;1621;49.702;8.618;2023-01-13T05:06:14;3.30;;;1.30;;
3217;SDS011;1621;49.702;8.618;2023-01-13T05:08:41;4.03;;;0.90;;
3217;SDS011;1621;49.702;8.618;2023-01-13T05:11:07;3.30;;;1.10;;
3217;SDS011;1621;49.702;8.618;2023-01-13T05:13:47;3.40;;;1.10;;
3217;SDS011;1621;49.702;8.618;2023-01-13T05:16:33;2.20;;;0.90;;
3217;SDS011;1621;49.702;8.618;2023-01-13T05:19:17;2.67;;;1.20;;
3217;SDS011;1621;49.702;8.618;2023-01-13T05:21:43;4.47;;;0.90;;
3217;SDS011;1621;49.702;8.618;2023-01-13T05:24:27;2.17;;;1.20;;
3217;SDS011;1621;49.702;8.618;2023-01-13T05:27:10;2.63;;;0.97;;
3217;SDS011;1621;49.702;8.618;2023-01-13T05:29:37;1.90;;;0.90;;
3217;SDS011;1621;49.702;8.618;2023-01-13T05:32:04;2.30;;;1.00;;
3217;SDS011;1621;49.702;8.618;2023-01-13T05:34:32;2.53;;;0.90;;
3217;SDS011;1621;49.702;8.618;2023-01-13T05:36:58;3.30;;;1.10;;
3217;SDS011;1621;49.702;8.618;2023-01-13T05:39:25;2.40;;;0.90;;
3217;SDS011;1621;49.702;8.618;2023-01-13T05:41:51;2.50;;;1.07;;
3217;SDS011;1621;49.702;8.618;2023-01-13T05:44:36;2.70;;;1.00;;
3217;SDS011;1621;49.702;8.618;2023-01-13T05:47:02;2.30;;;1.10;;
3217;SDS011;1621;49.702;8.618;2023-01-13T05:49:29;3.13;;;1.00;;
3217;SDS011;1621;49.702;8.618;2023-01-13T05:51:56;2.40;;;0.90;;
3217;SDS011;1621;49.702;8.618;2023-01-13T05:54:22;2.77;;;0.90;;
3217;SDS011;1621;49.702;8.618;2023-01-13T05:56:48;6.13;;;1.20;;
3217;SDS011;1621;49.702;8.618;2023-01-13T05:59:15;2.40;;;1.07;;
3217;SDS011;1621;49.702;8.618;2023-01-13T06:01:41;2.53;;;1.00;;
3217;SDS011;1621;49.702;8.618;2023-01-13T06:04:07;8.03;;;1.33;;
3217;SDS011;1621;49.702;8.618;2023-01-13T06:06:35;3.27;;;1.10;;
3217;SDS011;1621;49.702;8.618;2023-01-13T06:09:01;3.20;;;1.20;;
3217;SDS011;1621;49.702;8.618;2023-01-13T06:11:27;3.70;;;1.07;;
3217;SDS011;1621;49.702;8.618;2023-01-13T06:13:53;2.57;;;1.10;;
3217;SDS011;1621;49.702;8.618;2023-01-13T06:16:20;2.77;;;1.10;;
3217;SDS011;1621;49.702;8.618;2023-01-13T06:18:46;3.60;;;1.50;;
3217;SDS011;1621;49.702;8.618;2023-01-13T06:21:12;4.70;;;1.50;;
3217;SDS011;1621;49.702;8.618;2023-01-13T06:23:40;2.00;;;0.80;;
3217;SDS011;1621;49.702;8.618;2023-01-13T06:26:07;2.17;;;0.80;;
3217;SDS011;1621;49.702;8.618;2023-01-13T06:28:34;2.43;;;0.73;;
3217;SDS011;1621;49.702;8.618;2023-01-13T06:31:02;2.57;;;0.90;;
3217;SDS011;1621;49.702;8.618;2023-01-13T06:33:31;3.93;;;1.00;;
3217;SDS011;1621;49.702;8.618;2023-01-13T06:35:59;3.13;;;0.80;;
3217;SDS011;1621;49.702;8.618;2023-01-13T06:38:26;4.40;;;0.83;;
3217;SDS011;1621;49.702;8.618;2023-01-13T06:40:56;3.73;;;0.90;;
3217;SDS011;1621;49.702;8.618;2023-01-13T06:43:22;4.87;;;0.80;;
3217;SDS011;1621;49.702;8.618;2023-01-13T06:45:48;3.87;;;1.23;;
3217;SDS011;1621;49.702;8.618;2023-01-13T06:48:15;2.77;;;0.90;;
3217;SDS011;1621;49.702;8.618;2023-01-13T06:50:42;2.23;;;0.80;;
3217;SDS011;1621;49.702;8.618;2023-01-13T06:53:08;2.43;;;1.03;;
3217;SDS011;1621;49.702;8.618;2023-01-13T06:55:35;2.40;;;1.30;;
3217;SDS011;1621;49.702;8.618;2023-01-13T06:58:03;3.20;;;1.30;;
3217;SDS011;1621;49.702;8.618;2023-01-13T07:00:29;2.67;;;1.20;;
3217;SDS011;1621;49.702;8.618;2023-01-13T07:03:03;2.33;;;1.20;;
3217;SDS011;1621;49.702;8.618;2023-01-13T07:05:29;3.00;;;1.27;;
3217;SDS011;1621;49.702;8.618;2023-01-13T07:07:56;2.53;;;1.07;;
3217;SDS011;1621;49.702;8.618;2023-01-13T07:10:22;2.10;;;0.90;;
3217;SDS011;1621;49.702;8.618;2023-01-13T07:12:48;2.30;;;0.77;;
3217;SDS011;1621;49.702;8.618;2023-01-13T07:15:34;1.73;;;0.67;;
3217;SDS011;1621;49.702;8.618;2023-01-13T07:18:00;3.73;;;0.90;;
3217;SDS011;1621;49.702;8.618;2023-01-13T07:20:27;2.20;;;0.90;;
3217;SDS011;1621;49.702;8.618;2023-01-13T07:22:53;5.97;;;1.00;;
3217;SDS011;1621;49.702;8.618;2023-01-13T07:25:19;2.17;;;0.90;;
3217;SDS011;1621;49.702;8.618;2023-01-13T07:27:46;2.70;;;1.03;;
3217;SDS011;1621;49.702;8.618;2023-01-13T07:30:13;2.13;;;1.07;;
3217;SDS011;1621;49.702;8.618;2023-01-13T07:32:41;2.80;;;1.20;;
3217;SDS011;1621;49.702;8.618;2023-01-13T07:35:07;2.17;;;1.00;;
3217;SDS011;1621;49.702;8.618;2023-01-13T07:37:34;2.57;;;1.17;;
3217;SDS011;1621;49.702;8.618;2023-01-13T07:40:00;2.47;;;1.07;;
3217;SDS011;1621;49.702;8.618;2023-01-13T07:42:27;2.23;;;0.83;;
3217;SDS011;1621;49.702;8.618;2023-01-13T07:45:10;2.83;;;1.00;;
3217;SDS011;1621;49.702;8.618;2023-01-13T07:47:37;2.50;;;1.00;;
3217;SDS011;1621;49.702;8.618;2023-01-13T07:50:06;2.53;;;1.03;;
3217;SDS011;1621;49.702;8.618;2023-01-13T07:52:32;3.80;;;1.00;;
3217;SDS011;1621;49.702;8.618;2023-01-13T07:54:58;2.00;;;0.83;;
3217;SDS011;1621;49.702;8.618;2023-01-13T07:57:25;2.90;;;1.17;;
3217;SDS011;1621;49.702;8.618;2023-01-13T07:59:51;2.40;;;0.93;;
3217;SDS011;1621;49.702;8.618;2023-01-13T08:02:17;3.30;;;1.10;;
3217;SDS011;1621;49.702;8.618;2023-01-13T08:04:43;4.00;;;1.20;;
3217;SDS011;1621;49.702;8.618;2023-01-13T08:07:11;4.23;;;1.50;;
3217;SDS011;1621;49.702;8.618;2023-01-13T08:09:37;2.53;;;0.90;;
3217;SDS011;1621;49.702;8.618;2023-01-13T08:12:04;5.33;;;1.40;;
3217;SDS011;1621;49.702;8.618;2023-01-13T08:14:50;3.47;;;1.10;;
3217;SDS011;1621;49.702;8.618;2023-01-13T08:17:18;3.90;;;1.10;;
3217;SDS011;1621;49.702;8.618;2023-01-13T08:19:44;3.50;;;1.00;;
3217;SDS011;1621;49.702;8.618;2023-01-13T08:22:12;2.60;;;1.00;;
3217;SDS011;1621;49.702;8.618;2023-01-13T08:24:38;3.47;;;1.00;;
3217;SDS011;1621;49.702;8.618;2023-01-13T08:27:04;3.00;;;0.97;;
3217;SDS011;1621;49.702;8.618;2023-01-13T08:29:30;2.40;;;1.00;;
3217;SDS011;1621;49.702;8.618;2023-01-13T08:31:57;4.40;;;1.13;;
3217;SDS011;1621;49.702;8.618;2023-01-13T08:34:23;2.83;;;1.00;;
3217;SDS011;1621;49.702;8.618;2023-01-13T08:36:49;4.50;;;1.30;;
3217;SDS011;1621;49.702;8.618;2023-01-13T08:39:17;3.70;;;1.17;;
3217;SDS011;1621;49.702;8.618;2023-01-13T08:41:43;2.83;;;1.23;;
3217;SDS011;1621;49.702;8.618;2023-01-13T08:44:23;4.30;;;1.20;;
3217;SDS011;1621;49.702;8.618;2023-01-13T08:46:49;3.90;;;1.33;;
3217;SDS011;1621;49.702;8.618;2023-01-13T08:49:16;4.40;;;1.20;;
3217;SDS011;1621;49.702;8.618;2023-01-13T08:51:42;10.07;;;2.13;;
3217;SDS011;1621;49.702;8.618;2023-01-13T08:54:09;6.60;;;1.80;;
3217;SDS011;1621;49.702;8.618;2023-01-13T08:56:37;4.77;;;1.50;;
3217;SDS011;1621;49.702;8.618;2023-01-13T08:59:04;3.50;;;1.17;;
3217;SDS011;1621;49.702;8.618;2023-01-13T09:01:30;3.10;;;1.20;;
3217;SDS011;1621;49.702;8.618;2023-01-13T09:03:57;3.63;;;1.10;;
3217;SDS011;1621;49.702;8.618;2023-01-13T09:06:24;4.67;;;1.33;;
3217;SDS011;1621;49.702;8.618;2023-01-13T09:08:50;8.00;;;1.33;;
3217;SDS011;1621;49.702;8.618;2023-01-13T09:11:17;4.10;;;1.20;;
3217;SDS011;1621;49.702;8.618;2023-01-13T09:14:02;3.70;;;1.47;;
3217;SDS011;1621;49.702;8.618;2023-01-13T09:16:29;4.70;;;1.40;;
3217;SDS011;1621;49.702;8.618;2023-01-13T09:18:55;10.23;;;2.40;;
3217;SDS011;1621;49.702;8.618;2023-01-13T09:21:21;4.47;;;1.63;;
3217;SDS011;1621;49.702;8.618;2023-01-13T09:23:47;2.97;;;1.40;;
3217;SDS011;1621;49.702;8.618;2023-01-13T09:26:14;5.37;;;1.60;;
3217;SDS011;1621;49.702;8.618;2023-01-13T09:28:41;5.47;;;1.23;;
3217;SDS011;1621;49.702;8.618;2023-01-13T09:31:08;3.57;;;1.30;;
3217;SDS011;1621;49.702;8.618;2023-01-13T09:33:39;4.43;;;1.23;;
3217;SDS011;1621;49.702;8.618;2023-01-13T09:36:23;2.60;;;1.30;;
3217;SDS011;1621;49.702;8.618;2023-01-13T09:38:50;3.90;;;1.20;;
3217;SDS011;1621;49.702;8.618;2023-01-13T09:41:17;4.60;;;1.40;;
3217;SDS011;1621;49.702;8.618;2023-01-13T09:44:15;6.47;;;1.63;;
3217;SDS011;1621;49.702;8.618;2023-01-13T09:46:45;6.83;;;1.70;;
3217;SDS011;1621;49.702;8.618;2023-01-13T09:49:13;3.80;;;1.30;;
3217;SDS011;1621;49.702;8.618;2023-01-13T09:51:45;4.20;;;1.10;;
3217;SDS011;1621;49.702;8.618;2023-01-13T09:54:14;3.57;;;1.10;;
3217;SDS011;1621;49.702;8.618;2023-01-13T09:56:43;4.30;;;1.30;;
3217;SDS011;1621;49.702;8.618;2023-01-13T09:59:10;2.97;;;1.10;;
3217;SDS011;1621;49.702;8.618;2023-01-13T10:01:38;8.10;;;2.37;;
3217;SDS011;1621;49.702;8.618;2023-01-13T10:04:09;4.63;;;1.40;;
3217;SDS011;1621;49.702;8.618;2023-01-13T10:06:36;7.33;;;1.43;;
3217;SDS011;1621;49.702;8.618;2023-01-13T10:09:04;5.00;;;1.77;;
3217;SDS011;1621;49.702;8.618;2023-01-13T10:11:30;3.90;;;1.70;;
3217;SDS011;1621;49.702;8.618;2023-01-13T10:14:16;2.77;;;1.00;;
3217;SDS011;1621;49.702;8.618;2023-01-13T10:16:44;2.30;;;1.00;;
3217;SDS011;1621;49.702;8.618;2023-01-13T10:19:16;6.57;;;1.80;;
3217;SDS011;1621;49.702;8.618;2023-01-13T10:21:51;4.70;;;1.53;;
3217;SDS011;1621;49.702;8.618;2023-01-13T10:24:20;4.53;;;1.40;;
3217;SDS011;1621;49.702;8.618;2023-01-13T10:26:53;4.00;;;1.23;;
3217;SDS011;1621;49.702;8.618;2023-01-13T10:29:24;4.57;;;1.50;;
3217;SDS011;1621;49.702;8.618;2023-01-13T10:31:51;5.07;;;1.60;;
3217;SDS011;1621;49.702;8.618;2023-01-13T10:34:19;6.60;;;1.30;;
3217;SDS011;1621;49.702;8.618;2023-01-13T10:36:53;10.03;;;2.20;;
3217;SDS011;1621;49.702;8.618;2023-01-13T10:39:23;3.17;;;1.20;;
3217;SDS011;1621;49.702;8.618;2023-01-13T10:41:59;8.50;;;2.20;;
3217;SDS011;1621;49.702;8.618;2023-01-13T10:44:25;3.30;;;1.47;;
3217;SDS011;1621;49.702;8.618;2023-01-13T10:46:52;6.37;;;2.20;;
3217;SDS011;1621;49.702;8.618;2023-01-13T10:49:25;3.97;;;1.60;;
3217;SDS011;1621;49.702;8.618;2023-01-13T10:51:52;10.30;;;1.97;;
3217;SDS011;1621;49.702;8.618;2023-01-13T10:54:19;6.00;;;1.70;;
3217;SDS011;1621;49.702;8.618;2023-01-13T10:56:46;5.27;;;2.07;;
3217;SDS011;1621;49.702;8.618;2023-01-13T10:59:14;6.17;;;1.83;;
3217;SDS011;1621;49.702;8.618;2023-01-13T11:01:41;7.03;;;1.60;;
3217;SDS011;1621;49.702;8.618;2023-01-13T11:04:23;6.07;;;2.10;;
3217;SDS011;1621;49.702;8.618;2023-01-13T11:06:52;4.47;;;1.77;;
3217;SDS011;1621;49.702;8.618;2023-01-13T11:09:19;3.60;;;1.50;;
3217;SDS011;1621;49.702;8.618;2023-01-13T11:11:46;3.83;;;1.53;;
3217;SDS011;1621;49.702;8.618;2023-01-13T11:14:17;4.60;;;1.27;;
3217;SDS011;1621;49.702;8.618;2023-01-13T11:17:02;5.50;;;1.90;;
3217;SDS011;1621;49.702;8.618;2023-01-13T11:19:33;7.73;;;1.87;;
3217;SDS011;1621;49.702;8.618;2023-01-13T11:22:03;5.50;;;2.13;;
3217;SDS011;1621;49.702;8.618;2023-01-13T11:24:33;5.60;;;1.80;;
3217;SDS011;1621;49.702;8.618;2023-01-13T11:27:01;8.17;;;2.23;;
3217;SDS011;1621;49.702;8.618;2023-01-13T11:29:30;4.20;;;1.93;;
3217;SDS011;1621;49.702;8.618;2023-01-13T11:31:59;6.23;;;2.43;;
3217;SDS011;1621;49.702;8.618;2023-01-13T11:34:28;5.77;;;2.30;;
3217;SDS011;1621;49.702;8.618;2023-01-13T11:36:55;6.07;;;2.30;;
3217;SDS011;1621;49.702;8.618;2023-01-13T11:39:24;7.33;;;2.00;;
3217;SDS011;1621;49.702;8.618;2023-01-13T11:41:52;10.00;;;2.10;;
3217;SDS011;1621;49.702;8.618;2023-01-13T11:44:35;7.80;;;2.00;;
3217;SDS011;1621;49.702;8.618;2023-01-13T11:47:04;8.17;;;2.47;;
3217;SDS011;1621;49.702;8.618;2023-01-13T11:49:31;10.37;;;2.53;;
3217;SDS011;1621;49.702;8.618;2023-01-13T11:51:59;9.17;;;2.13;;
3217;SDS011;1621;49.702;8.618;2023-01-13T11:57:14;6.90;;;2.53;;
3217;SDS011;1621;49.702;8.618;2023-01-13T11:59:46;8.53;;;2.13;;
3217;SDS011;1621;49.702;8.618;2023-01-13T12:02:23;5.97;;;1.90;;
3217;SDS011;1621;49.702;8.618;2023-01-13T12:04:56;7.03;;;2.03;;
3217;SDS011;1621;49.702;8.618;2023-01-13T12:07:26;6.97;;;2.40;;
3217;SDS011;1621;49.702;8.618;2023-01-13T12:10:02;11.93;;;2.23;;
3217;SDS011;1621;49.702;8.618;2023-01-13T12:12:35;7.17;;;2.27;;
3217;SDS011;1621;49.702;8.618;2023-01-13T12:18:14;5.17;;;1.60;;
3217;SDS011;1621;49.702;8.618;2023-01-13T12:20:42;9.63;;;2.30;;
3217;SDS011;1621;49.702;8.618;2023-01-13T12:23:14;9.13;;;2.20;;
3217;SDS011;1621;49.702;8.618;2023-01-13T12:25:44;4.47;;;1.70;;
3217;SDS011;1621;49.702;8.618;2023-01-13T12:28:14;5.10;;;1.90;;
3217;SDS011;1621;49.702;8.618;2023-01-13T12:30:42;5.73;;;1.80;;
3217;SDS011;1621;49.702;8.618;2023-01-13T12:33:12;10.17;;;2.20;;
3217;SDS011;1621;49.702;8.618;2023-01-13T12:35:41;7.20;;;1.40;;
3217;SDS011;1621;49.702;8.618;2023-01-13T12:38:14;4.80;;;1.33;;
3217;SDS011;1621;49.702;8.618;2023-01-13T12:40:44;3.70;;;1.37;;
3217;SDS011;1621;49.702;8.618;2023-01-13T12:43:15;5.13;;;1.30;;
3217;SDS011;1621;49.702;8.618;2023-01-13T12:48:58;5.40;;;1.23;;
3217;SDS011;1621;49.702;8.618;2023-01-13T12:51:29;7.10;;;1.80;;
3217;SDS011;1621;49.702;8.618;2023-01-13T12:53:57;4.43;;;1.57;;
3217;SDS011;1621;49.702;8.618;2023-01-13T12:56:28;7.97;;;2.23;;
3217;SDS011;1621;49.702;8.618;2023-01-13T13:04:44;5.53;;;1.90;;
3217;SDS011;1621;49.702;8.618;2023-01-13T13:07:11;8.50;;;2.67;;
3217;SDS011;1621;49.702;8.618;2023-01-13T13:09:40;6.00;;;2.10;;
3217;SDS011;1621;49.702;8.618;2023-01-13T13:15:17;7.07;;;2.17;;
3217;SDS011;1621;49.702;8.618;2023-01-13T13:17:44;7.37;;;2.97;;
3217;SDS011;1621;49.702;8.618;2023-01-13T13:25:59;7.53;;;2.30;;
3217;SDS011;1621;49.702;8.618;2023-01-13T13:28:26;8.53;;;2.57;;
3217;SDS011;1621;49.702;8.618;2023-01-13T13:31:03;6.50;;;2.20;;
3217;SDS011;1621;49.702;8.618;2023-01-13T13:33:34;13.57;;;3.00;;
3217;SDS011;1621;49.702;8.618;2023-01-13T13:36:06;8.93;;;2.70;;
3217;SDS011;1621;49.702;8.618;2023-01-13T13:38:43;7.67;;;2.50;;
3217;SDS011;1621;49.702;8.618;2023-01-13T13:41:34;7.73;;;2.47;;
3217;SDS011;1621;49.702;8.618;2023-01-13T13:44:20;6.30;;;2.13;;
3217;SDS011;1621;49.702;8.618;2023-01-13T13:47:05;6.10;;;1.50;;
3217;SDS011;1621;49.702;8.618;2023-01-13T13:49:35;12.40;;;2.63;;
3217;SDS011;1621;49.702;8.618;2023-01-13T13:52:05;8.07;;;1.53;;
3217;SDS011;1621;49.702;8.618;2023-01-13T13:54:35;4.60;;;1.63;;
3217;SDS011;1621;49.702;8.618;2023-01-13T13:57:03;4.80;;;1.23;;
3217;SDS011;1621;49.702;8.618;2023-01-13T13:59:30;4.37;;;1.80;;
3217;SDS011;1621;49.702;8.618;2023-01-13T14:01:58;7.60;;;1.50;;
3217;SDS011;1621;49.702;8.618;2023-01-13T14:04:27;5.00;;;1.70;;
3217;SDS011;1621;49.702;8.618;2023-01-13T14:06:56;5.50;;;1.80;;
3217;SDS011;1621;49.702;8.618;2023-01-13T14:09:23;7.10;;;2.17;;
3217;SDS011;1621;49.702;8.618;2023-01-13T14:11:53;4.80;;;2.03;;
3217;SDS011;1621;49.702;8.618;2023-01-13T14:14:21;3.40;;;1.43;;
3217;SDS011;1621;49.702;8.618;2023-01-13T14:16:48;4.70;;;1.60;;
3217;SDS011;1621;49.702;8.618;2023-01-13T14:19:20;7.63;;;1.80;;
3217;SDS011;1621;49.702;8.618;2023-01-13T14:21:48;6.53;;;1.70;;
3217;SDS011;1621;49.702;8.618;2023-01-13T14:24:14;6.47;;;1.43;;
3217;SDS011;1621;49.702;8.618;2023-01-13T14:26:41;3.67;;;1.60;;
3217;SDS011;1621;49.702;8.618;2023-01-13T14:29:09;6.07;;;2.30;;
3217;SDS011;1621;49.702;8.618;2023-01-13T14:31:40;5.47;;;1.60;;
3217;SDS011;1621;49.702;8.618;2023-01-13T14:34:08;5.13;;;1.80;;
3217;SDS011;1621;49.702;8.618;2023-01-13T14:36:36;4.80;;;1.87;;
3217;SDS011;1621;49.702;8.618;2023-01-13T14:39:22;3.70;;;1.50;;
3217;SDS011;1621;49.702;8.618;2023-01-13T14:41:48;4.03;;;1.70;;
3217;SDS011;1621;49.702;8.618;2023-01-13T14:44:16;4.80;;;1.97;;
3217;SDS011;1621;49.702;8.618;2023-01-13T14:46:47;7.97;;;2.30;;
3217;SDS011;1621;49.702;8.618;2023-01-13T14:49:15;6.30;;;2.13;;
3217;SDS011;1621;49.702;8.618;2023-01-13T14:51:45;5.20;;;1.60;;
3217;SDS011;1621;49.702;8.618;2023-01-13T14:57:04;10.90;;;2.50;;
3217;SDS011;1621;49.702;8.618;2023-01-13T14:59:48;4.60;;;2.00;;
3217;SDS011;1621;49.702;8.618;2023-01-13T15:02:39;10.93;;;2.03;;
3217;SDS011;1621;49.702;8.618;2023-01-13T15:05:26;7.77;;;2.50;;
3217;SDS011;1621;49.702;8.618;2023-01-13T15:07:54;8.13;;;3.10;;
3217;SDS011;1621;49.702;8.618;2023-01-13T15:10:21;7.00;;;2.40;;
3217;SDS011;1621;49.702;8.618;2023-01-13T15:12:48;5.57;;;1.70;;
3217;SDS011;1621;49.702;8.618;2023-01-13T15:15:19;10.43;;;3.50;;
3217;SDS011;1621;49.702;8.618;2023-01-13T15:17:48;10.20;;;2.87;;
3217;SDS011;1621;49.702;8.618;2023-01-13T15:20:15;7.77;;;3.57;;
3217;SDS011;1621;49.702;8.618;2023-01-13T15:22:43;9.03;;;3.07;;
3217;SDS011;1621;49.702;8.618;2023-01-13T15:25:09;8.03;;;2.63;;
3217;SDS011;1621;49.702;8.618;2023-01-13T15:27:36;8.67;;;2.73;;
3217;SDS011;1621;49.702;8.618;2023-01-13T15:30:02;4.00;;;1.83;;
3217;SDS011;1621;49.702;8.618;2023-01-13T15:32:29;8.03;;;2.53;;
3217;SDS011;1621;49.702;8.618;2023-01-13T15:34:56;6.00;;;3.13;;
3217;SDS011;1621;49.702;8.618;2023-01-13T15:37:22;10.70;;;2.50;;
3217;SDS011;1621;49.702;8.618;2023-01-13T15:39:49;4.73;;;1.97;;
3217;SDS011;1621;49.702;8.618;2023-01-13T15:42:15;9.63;;;2.47;;
3217;SDS011;1621;49.702;8.618;2023-01-13T15:44:59;9.63;;;2.30;;
3217;SDS011;1621;49.702;8.618;2023-01-13T15:47:43;6.37;;;2.13;;
3217;SDS011;1621;49.702;8.618;2023-01-13T15:50:13;8.83;;;2.90;;
3217;SDS011;1621;49.702;8.618;2023-01-13T15:52:40;5.93;;;2.43;;
3217;SDS011;1621;49.702;8.618;2023-01-13T15:55:06;7.97;;;2.20;;
3217;SDS011;1621;49.702;8.618;2023-01-13T15:57:33;7.10;;;2.37;;